Time;durP1;ratioP1;P1;durP2;ratioP2;P2;SDS_P1;SDS_P2;PMS_P1;PMS_P2;Temp;Humidity;BMP_temperature;BMP_pressure;BME280_temperature;BME280_humidity;BME280_pressure;Samples;Min_cycle;Max_cycle;Signal;HPM_P1;HPM_P2
2023/09/18 00:01:39;;;;;;;;;16.00;14.00;;;;;24.74;50.88;100983.44;110230;1250;19835;-37
2023/09/18 00:04:05;;;;;;;;;17.00;16.00;;;;;24.73;50.65;100981.36;110194;1264;22028;-37
2023/09/18 00:06:31;;;;;;;;;17.00;14.00;;;;;24.71;50.82;100982.10;110191;1257;20737;-37
2023/09/18 00:08:57;;;;;;;;;16.00;14.00;;;;;24.69;50.76;100986.95;110184;1250;19766;-36
2023/09/18 00:11:23;;;;;;;;;17.00;14.00;;;;;24.69;50.78;100981.85;110185;1248;18483;-37
2023/09/18 00:13:49;;;;;;;;;17.50;16.50;;;;;24.68;51.05;100983.34;110249;1264;19143;-37
2023/09/18 00:16:14;;;;;;;;;15.00;13.50;;;;;24.66;51.03;100985.60;110290;1264;18351;-37
2023/09/18 00:18:41;;;;;;;;;14.00;14.00;;;;;24.66;50.93;100984.17;110310;1247;20028;-37
2023/09/18 00:21:10;;;;;;;;;20.00;16.00;;;;;24.66;51.07;100986.98;110363;1263;20818;-37
2023/09/18 00:23:36;;;;;;;;;14.00;14.00;;;;;24.65;51.02;100986.22;110192;1256;18561;-36
2023/09/18 00:26:02;;;;;;;;;15.00;13.00;;;;;24.63;50.90;100986.95;110251;1247;22398;-37
2023/09/18 00:28:28;;;;;;;;;14.00;14.00;;;;;24.63;50.98;100988.11;110235;1264;22848;-38
2023/09/18 00:30:53;;;;;;;;;14.00;14.00;;;;;24.64;51.03;100989.30;110227;1263;18374;-38
2023/09/18 00:33:19;;;;;;;;;;;;;;;24.64;51.09;100987.00;110239;1247;19773;-38
2023/09/18 00:35:45;;;;;;;;;17.00;16.00;;;;;24.65;51.03;100987.41;110245;1250;20353;-38
2023/09/18 00:38:11;;;;;;;;;15.00;13.00;;;;;24.64;50.90;100983.05;110167;1263;18245;-37
2023/09/18 00:40:37;;;;;;;;;14.00;14.00;;;;;24.61;50.92;100977.60;110234;1250;19928;-38
2023/09/18 00:43:03;;;;;;;;;14.00;14.00;;;;;24.64;50.95;100979.92;110223;1264;19244;-38
2023/09/18 00:45:29;;;;;;;;;17.00;14.00;;;;;24.63;50.78;100982.19;110246;1250;19750;-39
2023/09/18 00:47:55;;;;;;;;;13.00;13.00;;;;;24.64;51.08;100976.27;110235;1263;18681;-38
2023/09/18 00:50:22;;;;;;;;;14.00;14.00;;;;;24.64;51.00;100981.46;110226;1263;19072;-39
2023/09/18 00:52:47;;;;;;;;;15.50;13.50;;;;;24.63;50.99;100978.46;110230;1250;22602;-38
2023/09/18 00:55:13;;;;;;;;;18.00;17.00;;;;;24.61;51.02;100973.05;110270;1250;21037;-37
2023/09/18 00:57:39;;;;;;;;;14.00;13.00;;;;;24.61;50.97;100972.52;110215;1247;21005;-37
2023/09/18 01:00:05;;;;;;;;;18.00;16.00;;;;;24.58;50.99;100970.67;110214;1263;22348;-37
2023/09/18 01:02:31;;;;;;;;;16.50;14.50;;;;;24.62;50.88;100974.74;110230;1250;22408;-37
2023/09/18 01:04:57;;;;;;;;;14.00;13.50;;;;;24.62;50.85;100973.77;110241;1250;20486;-37
2023/09/18 01:07:23;;;;;;;;;13.00;13.00;;;;;24.62;50.85;100970.64;110245;1263;18375;-38
2023/09/18 01:09:49;;;;;;;;;18.00;14.00;;;;;24.62;50.88;100967.45;110245;1263;18641;-38
2023/09/18 01:12:15;;;;;;;;;16.00;16.00;;;;;24.58;51.17;100967.99;110396;1248;20515;-36
2023/09/18 01:14:41;;;;;;;;;18.00;17.00;;;;;24.61;50.78;100965.94;110343;1248;20012;-37
2023/09/18 01:17:07;;;;;;;;;14.00;14.00;;;;;24.61;50.98;100960.96;110227;1263;18471;-37
2023/09/18 01:19:33;;;;;;;;;18.00;16.00;;;;;24.59;50.96;100963.66;110211;1250;23371;-37
2023/09/18 01:21:59;;;;;;;;;14.00;14.00;;;;;24.60;51.02;100957.90;110257;1256;23356;-38
2023/09/18 01:24:25;;;;;;;;;16.00;16.00;;;;;24.61;51.19;100960.25;110232;1250;19954;-38
2023/09/18 01:26:51;;;;;;;;;13.00;13.00;;;;;24.60;51.09;100958.27;110239;1263;20784;-38
2023/09/18 01:29:19;;;;;;;;;14.00;14.00;;;;;24.59;50.90;100954.41;110260;1247;22432;-37
2023/09/18 01:31:48;;;;;;;;;16.00;14.00;;;;;24.59;51.12;100958.02;110205;1263;18711;-39
2023/09/18 01:34:14;;;;;;;;;17.00;16.00;;;;;24.58;50.98;100958.41;110222;1250;21886;-37
2023/09/18 01:36:39;;;;;;;;;14.00;14.00;;;;;24.58;51.16;100958.80;110232;1247;19865;-37
2023/09/18 01:39:05;;;;;;;;;14.00;14.00;;;;;24.56;51.11;100953.34;110251;1263;18667;-38
2023/09/18 01:41:31;;;;;;;;;17.00;17.00;;;;;24.56;51.19;100953.83;110248;1256;22284;-36
2023/09/18 01:43:57;;;;;;;;;17.00;16.00;;;;;24.56;51.02;100950.27;110183;1263;18547;-37
2023/09/18 01:46:23;;;;;;;;;18.00;16.00;;;;;24.52;51.28;100950.54;110303;1250;19800;-37
2023/09/18 01:48:49;;;;;;;;;13.50;13.00;;;;;24.53;51.18;100949.42;110240;1250;20450;-36
2023/09/18 01:51:15;;;;;;;;;20.00;18.00;;;;;24.54;51.14;100951.23;110243;1264;18515;-37
2023/09/18 01:53:41;;;;;;;;;17.00;16.00;;;;;24.54;51.02;100948.43;110232;1248;20163;-37
2023/09/18 01:56:07;;;;;;;;;17.00;17.00;;;;;24.54;51.07;100943.02;110125;1250;20732;-37
2023/09/18 01:58:33;;;;;;;;;17.00;17.00;;;;;24.49;51.14;100943.11;110249;1264;22763;-37
2023/09/18 02:00:59;;;;;;;;;18.00;17.00;;;;;24.51;51.10;100946.38;110234;1248;18935;-37
2023/09/18 02:03:25;;;;;;;;;17.50;16.00;;;;;24.52;51.29;100948.35;110235;1247;20616;-38
2023/09/18 02:05:51;;;;;;;;;16.00;14.00;;;;;24.51;51.50;100950.77;110255;1251;19850;-38
2023/09/18 02:08:17;;;;;;;;;16.50;16.50;;;;;24.50;51.46;100950.34;110190;1247;18816;-37
2023/09/18 02:10:43;;;;;;;;;18.00;18.00;;;;;24.49;51.16;100949.14;110211;1263;19157;-37
2023/09/18 02:13:10;;;;;;;;;18.00;14.00;;;;;24.51;51.44;100948.91;110256;1247;19779;-37
2023/09/18 02:15:36;;;;;;;;;17.50;16.50;;;;;24.47;51.46;100949.77;110254;1264;18588;-37
2023/09/18 02:18:02;;;;;;;;;15.33;15.33;;;;;24.48;51.30;100945.05;110221;1264;19296;-37
2023/09/18 02:20:28;;;;;;;;;17.00;17.00;;;;;24.52;51.22;100946.92;110222;1263;18363;-37
2023/09/18 02:22:54;;;;;;;;;16.00;14.00;;;;;24.50;51.12;100941.30;110234;1248;23277;-37
2023/09/18 02:25:20;;;;;;;;;19.00;16.50;;;;;24.52;51.01;100939.96;110201;1264;22177;-37
2023/09/18 02:27:46;;;;;;;;;14.50;14.50;;;;;24.51;51.20;100940.69;110219;1264;22887;-38
2023/09/18 02:30:12;;;;;;;;;20.00;16.00;;;;;24.49;51.09;100940.98;110238;1250;22795;-38
2023/09/18 02:32:38;;;;;;;;;17.00;16.00;;;;;24.49;51.25;100941.10;110216;1247;22243;-38
2023/09/18 02:35:06;;;;;;;;;17.00;16.00;;;;;24.45;51.55;100940.48;110239;1257;19826;-38
2023/09/18 02:37:33;;;;;;;;;16.00;14.00;;;;;24.44;51.37;100938.35;110200;1248;22067;-38
2023/09/18 02:39:59;;;;;;;;;16.00;14.00;;;;;24.44;51.31;100935.88;110222;1248;21985;-38
2023/09/18 02:42:25;;;;;;;;;16.00;14.00;;;;;24.44;51.20;100931.68;110248;1250;22808;-38
2023/09/18 02:44:51;;;;;;;;;18.00;17.00;;;;;24.42;51.19;100933.55;110229;1250;20062;-38
2023/09/18 02:47:17;;;;;;;;;19.00;16.50;;;;;24.44;51.23;100932.55;110235;1250;19073;-38
2023/09/18 02:49:44;;;;;;;;;20.00;16.00;;;;;24.44;51.23;100929.59;110241;1257;18720;-37
2023/09/18 02:52:10;;;;;;;;;17.00;16.00;;;;;24.43;51.22;100929.32;110231;1263;18493;-37
2023/09/18 02:54:36;;;;;;;;;16.00;14.00;;;;;24.42;51.29;100929.99;110221;1250;20498;-38
2023/09/18 02:57:01;;;;;;;;;14.00;13.00;;;;;24.44;51.24;100929.42;110220;1248;18376;-37
2023/09/18 02:59:27;;;;;;;;;17.00;16.00;;;;;24.42;51.37;100930.98;110120;1264;22597;-38
2023/09/18 03:01:53;;;;;;;;;18.00;17.00;;;;;24.43;51.21;100927.02;110088;1247;22296;-37
2023/09/18 03:04:20;;;;;;;;;17.00;14.00;;;;;24.44;51.06;100924.39;110293;1263;23618;-38
2023/09/18 03:06:45;;;;;;;;;16.00;14.00;;;;;24.42;51.06;100922.21;110236;1263;22789;-37
2023/09/18 03:09:12;;;;;;;;;17.00;15.00;;;;;24.43;51.15;100920.02;110191;1250;22015;-37
2023/09/18 03:11:38;;;;;;;;;16.00;16.00;;;;;24.45;50.88;100923.94;110223;1263;19879;-38
2023/09/18 03:14:03;;;;;;;;;13.00;13.00;;;;;24.43;51.03;100919.63;110217;1250;22849;-38
2023/09/18 03:16:32;;;;;;;;;14.00;14.00;;;;;24.42;50.84;100921.66;110213;1264;22783;-38
2023/09/18 03:18:58;;;;;;;;;16.00;14.00;;;;;24.42;50.97;100923.04;110210;1248;21233;-39
2023/09/18 03:21:24;;;;;;;;;14.00;14.00;;;;;24.40;50.92;100920.00;110287;1250;19893;-38
2023/09/18 03:23:50;;;;;;;;;14.00;13.50;;;;;24.41;50.94;100918.18;110317;1247;20638;-38
2023/09/18 03:26:16;;;;;;;;;16.00;14.00;;;;;24.40;50.95;100922.52;110282;1263;20138;-39
2023/09/18 03:28:42;;;;;;;;;15.00;13.00;;;;;24.40;50.84;100925.48;110203;1249;20992;-39
2023/09/18 03:31:08;;;;;;;;;17.00;16.00;;;;;24.40;51.02;100919.17;110248;1250;20548;-37
2023/09/18 03:33:34;;;;;;;;;13.00;13.00;;;;;24.41;50.92;100915.39;110229;1250;19956;-38
2023/09/18 03:36:00;;;;;;;;;14.00;14.00;;;;;24.40;50.83;100913.38;110228;1250;19986;-38
2023/09/18 03:38:26;;;;;;;;;17.50;14.00;;;;;24.39;50.90;100916.61;110247;1257;20363;-38
2023/09/18 03:40:52;;;;;;;;;20.50;16.00;;;;;24.39;50.83;100914.75;110231;1250;19984;-38
2023/09/18 03:43:18;;;;;;;;;17.50;16.50;;;;;24.37;51.09;100911.32;110218;1248;22354;-38
2023/09/18 03:45:44;;;;;;;;;17.00;16.00;;;;;24.39;50.93;100907.80;110218;1250;22813;-39
2023/09/18 03:48:10;;;;;;;;;17.00;16.00;;;;;24.35;50.99;100901.33;110245;1247;22847;-39
2023/09/18 03:50:36;;;;;;;;;16.00;14.00;;;;;24.36;50.98;100895.61;110239;1247;19835;-39
2023/09/18 03:53:02;;;;;;;;;18.00;17.00;;;;;24.37;50.83;100889.03;110254;1250;20548;-37
2023/09/18 03:55:28;;;;;;;;;17.00;16.33;;;;;24.39;50.62;100887.70;110168;1257;23371;-38
2023/09/18 03:57:54;;;;;;;;;16.00;16.00;;;;;24.36;50.63;100879.18;110222;1264;19237;-37
2023/09/18 04:00:20;;;;;;;;;17.00;17.00;;;;;24.35;50.70;100870.82;110233;1250;22299;-38
2023/09/18 04:02:46;;;;;;;;;;;;;;;24.32;50.87;100865.55;110191;1263;18703;-38
2023/09/18 04:05:12;;;;;;;;;21.00;20.00;;;;;24.33;50.91;100863.18;110257;1263;19531;-39
2023/09/18 04:07:38;;;;;;;;;16.50;15.00;;;;;24.34;50.82;100859.33;110242;1264;19254;-39
2023/09/18 04:10:05;;;;;;;;;18.50;16.00;;;;;24.34;50.80;100853.04;110183;1256;22813;-39
2023/09/18 04:12:31;;;;;;;;;18.00;17.00;;;;;24.35;50.49;100851.00;110173;1250;22712;-38
2023/09/18 04:14:57;;;;;;;;;18.00;17.00;;;;;24.36;50.70;100853.40;110175;1264;22832;-37
2023/09/18 04:17:23;;;;;;;;;16.00;16.00;;;;;24.35;50.60;100847.44;110208;1250;22792;-38
2023/09/18 04:19:49;;;;;;;;;18.00;17.00;;;;;24.34;50.75;100845.86;110202;1257;20847;-38
2023/09/18 04:22:15;;;;;;;;;17.00;15.00;;;;;24.32;50.70;100843.27;110222;1263;22535;-37
2023/09/18 04:24:41;;;;;;;;;16.00;14.00;;;;;24.29;50.65;100840.29;110287;1263;18424;-37
2023/09/18 04:27:07;;;;;;;;;14.00;13.00;;;;;24.32;50.50;100842.72;110246;1250;22306;-37
2023/09/18 04:29:33;;;;;;;;;18.33;17.33;;;;;24.30;50.60;100841.27;110207;1264;19327;-37
2023/09/18 04:31:59;;;;;;;;;16.50;15.00;;;;;24.25;50.71;100838.99;110212;1250;19829;-37
2023/09/18 04:34:25;;;;;;;;;15.50;14.50;;;;;24.28;50.72;100836.25;110208;1250;22280;-38
2023/09/18 04:36:51;;;;;;;;;16.00;14.00;;;;;24.28;50.73;100839.76;110223;1264;22799;-38
2023/09/18 04:39:17;;;;;;;;;16.00;14.00;;;;;24.26;50.70;100838.62;110242;1248;22389;-38
2023/09/18 04:41:43;;;;;;;;;17.00;16.00;;;;;24.25;50.80;100835.59;110234;1247;19875;-38
2023/09/18 04:44:12;;;;;;;;;14.00;14.00;;;;;24.26;50.71;100826.25;110224;1264;19342;-39
2023/09/18 04:46:38;;;;;;;;;18.00;17.00;;;;;24.27;50.55;100830.28;110200;1264;18628;-39
2023/09/18 04:49:04;;;;;;;;;22.00;20.00;;;;;24.15;50.85;100823.45;110097;1263;18776;-39
2023/09/18 04:51:32;;;;;;;;;23.00;20.00;;;;;24.03;51.05;100827.19;110246;1263;19178;-39
2023/09/18 04:53:58;;;;;;;;;23.67;22.33;;;;;23.97;50.97;100825.30;110208;1250;22152;-37
2023/09/18 04:56:25;;;;;;;;;28.50;25.00;;;;;23.85;51.53;100828.30;110242;1264;20729;-38
2023/09/18 04:58:51;;;;;;;;;31.00;27.00;;;;;23.59;52.04;100825.49;110198;1263;22342;-38
2023/09/18 05:01:18;;;;;;;;;27.00;23.00;;;;;23.10;53.58;100825.45;110229;1257;19823;-37
2023/09/18 05:03:45;;;;;;;;;31.00;24.00;;;;;23.05;53.64;100829.55;110189;1263;22686;-37
2023/09/18 05:06:11;;;;;;;;;25.50;22.50;;;;;23.22;53.34;100828.08;110210;1263;22179;-35
2023/09/18 05:08:36;;;;;;;;;20.00;19.00;;;;;23.39;53.46;100827.83;110213;1250;23123;-37
2023/09/18 05:11:02;;;;;;;;;23.00;22.00;;;;;23.63;52.78;100828.24;110207;1263;20755;-37
2023/09/18 05:13:28;;;;;;;;;19.50;18.50;;;;;23.84;53.23;100827.39;110258;1250;22598;-37
2023/09/18 05:15:54;;;;;;;;;17.00;17.00;;;;;23.95;53.38;100829.63;110218;1247;23447;-38
2023/09/18 05:18:21;;;;;;;;;17.00;16.00;;;;;24.08;52.67;100834.58;110229;1250;19854;-38
2023/09/18 05:20:47;;;;;;;;;101.00;71.00;;;;;24.17;52.46;100834.60;110181;1257;22778;-39
2023/09/18 05:23:13;;;;;;;;;248.00;177.00;;;;;24.25;52.45;100834.90;110202;1263;22452;-37
2023/09/18 05:25:41;;;;;;;;;456.00;317.67;;;;;24.27;52.24;100836.75;110264;1263;20100;-36
2023/09/18 05:28:08;;;;;;;;;417.00;299.00;;;;;24.26;51.82;100838.02;110135;1247;20605;-38
2023/09/18 05:30:35;;;;;;;;;302.00;213.00;;;;;24.22;51.63;100839.74;110167;1250;22694;-37
2023/09/18 05:33:04;;;;;;;;;193.00;139.00;;;;;24.23;51.83;100835.63;110218;1263;20117;-37
2023/09/18 05:35:30;;;;;;;;;179.33;130.00;;;;;24.19;51.72;100830.57;110262;1250;21226;-39
2023/09/18 05:37:58;;;;;;;;;113.00;85.67;;;;;24.17;51.67;100827.85;110202;1263;18919;-38
2023/09/18 05:40:26;;;;;;;;;102.50;74.00;;;;;24.15;51.38;100827.66;110148;1263;22095;-38
2023/09/18 05:42:52;;;;;;;;;78.50;58.50;;;;;24.18;51.27;100826.86;110195;1263;19574;-40
2023/09/18 05:45:18;;;;;;;;;76.00;54.00;;;;;24.16;51.34;100828.86;110248;1263;18743;-36
2023/09/18 05:47:44;;;;;;;;;62.50;47.00;;;;;24.12;51.29;100825.84;110239;1247;19127;-38
2023/09/18 05:50:14;;;;;;;;;50.00;42.00;;;;;24.09;51.46;100830.09;110189;1263;22834;-37
2023/09/18 05:52:40;;;;;;;;;56.00;40.00;;;;;24.06;51.51;100830.33;110198;1263;22605;-38
2023/09/18 05:55:07;;;;;;;;;39.00;34.00;;;;;24.09;51.60;100829.32;110183;1250;20081;-38
2023/09/18 05:57:33;;;;;;;;;41.50;35.50;;;;;24.06;51.67;100829.73;110195;1247;20525;-37
2023/09/18 05:59:59;;;;;;;;;33.00;30.00;;;;;24.06;51.78;100827.49;110148;1250;19783;-37
2023/09/18 06:02:25;;;;;;;;;32.00;25.50;;;;;24.09;51.63;100822.25;110172;1263;19966;-36
2023/09/18 06:04:51;;;;;;;;;31.00;26.00;;;;;24.14;51.55;100818.81;110139;1250;20624;-36
2023/09/18 06:07:17;;;;;;;;;25.00;23.00;;;;;24.16;51.54;100815.27;110071;1250;153433;-37
2023/09/18 06:09:43;;;;;;;;;27.33;23.33;;;;;24.20;51.06;100816.16;110280;1247;20252;-36
2023/09/18 06:12:09;;;;;;;;;19.00;17.00;;;;;24.21;51.31;100815.39;110208;1250;20562;-38
2023/09/18 06:14:37;;;;;;;;;24.33;22.33;;;;;24.25;51.22;100811.77;110227;1250;21938;-37
2023/09/18 06:17:04;;;;;;;;;23.00;21.00;;;;;24.22;51.18;100810.40;110227;1248;20387;-37
2023/09/18 06:19:29;;;;;;;;;23.00;21.00;;;;;24.25;51.30;100808.45;110232;1250;21707;-37
2023/09/18 06:21:55;;;;;;;;;25.50;23.50;;;;;24.29;51.14;100808.81;110232;1264;22389;-39
2023/09/18 06:24:21;;;;;;;;;23.50;19.50;;;;;24.27;51.17;100812.39;110275;1264;18567;-37
2023/09/18 06:26:47;;;;;;;;;20.00;17.50;;;;;24.25;51.37;100813.33;110290;1256;19109;-38
2023/09/18 06:29:13;;;;;;;;;21.50;19.50;;;;;24.27;51.45;100815.23;110245;1264;19032;-37
2023/09/18 06:31:39;;;;;;;;;24.00;19.00;;;;;24.28;51.55;100811.34;110271;1264;18529;-38
2023/09/18 06:34:05;;;;;;;;;20.00;18.00;;;;;24.25;51.39;100809.82;110223;1263;20489;-37
2023/09/18 06:36:31;;;;;;;;;23.00;17.00;;;;;24.29;51.47;100805.20;110256;1247;20427;-38
2023/09/18 06:38:58;;;;;;;;;20.00;18.00;;;;;24.31;51.61;100797.29;110301;1263;18683;-37
2023/09/18 06:41:24;;;;;;;;;21.00;19.00;;;;;24.35;51.41;100789.73;110236;1250;21911;-38
2023/09/18 06:43:50;;;;;;;;;19.50;18.00;;;;;24.35;51.43;100787.42;110225;1250;21326;-37
2023/09/18 06:46:16;;;;;;;;;21.00;21.00;;;;;24.39;51.38;100784.76;110226;1250;20145;-37
2023/09/18 06:48:45;;;;;;;;;20.00;20.00;;;;;24.42;51.45;100778.86;110197;1250;22484;-37
2023/09/18 06:51:11;;;;;;;;;20.00;18.00;;;;;24.43;51.37;100778.68;110205;1264;18582;-38
2023/09/18 06:53:37;;;;;;;;;20.00;17.00;;;;;24.44;51.37;100774.23;110262;1263;22232;-37
2023/09/18 06:56:03;;;;;;;;;24.00;21.00;;;;;24.40;51.67;100776.47;110389;1262;19398;-37
2023/09/18 06:58:29;;;;;;;;;20.00;19.00;;;;;24.42;51.70;100781.31;110374;1247;23456;-38
2023/09/18 07:00:57;;;;;;;;;20.00;17.00;;;;;24.42;51.73;100786.08;110393;1248;21030;-37
2023/09/18 07:03:23;;;;;;;;;20.00;20.00;;;;;24.47;51.63;100788.65;110393;1247;22273;-36
2023/09/18 07:05:49;;;;;;;;;22.50;20.00;;;;;24.52;51.68;100781.62;110372;1262;20072;-37
2023/09/18 07:08:19;;;;;;;;;16.50;15.00;;;;;24.57;51.82;100778.58;110377;1247;19807;-37
2023/09/18 07:10:45;;;;;;;;;18.00;16.00;;;;;24.64;51.64;100774.49;110346;1262;19426;-38
2023/09/18 07:13:11;;;;;;;;;16.50;16.00;;;;;24.67;51.72;100776.05;110413;1248;19883;-38
2023/09/18 07:15:37;;;;;;;;;16.50;14.00;;;;;24.72;51.74;100775.75;110382;1263;20194;-39
2023/09/18 07:18:03;;;;;;;;;20.00;18.00;;;;;24.77;51.71;100773.88;110375;1247;22034;-38
2023/09/18 07:20:30;;;;;;;;;21.33;18.67;;;;;24.79;51.79;100771.55;110368;1248;21509;-39
2023/09/18 07:22:56;;;;;;;;;18.00;17.00;;;;;24.82;51.78;100768.60;110404;1248;20107;-38
2023/09/18 07:25:22;;;;;;;;;17.67;17.00;;;;;24.87;51.57;100766.88;110390;1254;19355;-38
2023/09/18 07:27:48;;;;;;;;;20.00;18.00;;;;;24.84;51.72;100765.00;110213;1247;18380;-37
2023/09/18 07:30:15;;;;;;;;;21.00;17.50;;;;;24.85;51.68;100758.18;110271;1250;20097;-37
2023/09/18 07:32:42;;;;;;;;;21.00;17.67;;;;;24.91;51.54;100759.86;110203;1248;22088;-38
2023/09/18 07:35:08;;;;;;;;;18.00;16.00;;;;;24.93;51.57;100759.92;110224;1247;18609;-37
2023/09/18 07:37:35;;;;;;;;;29.00;22.00;;;;;24.96;51.76;100759.63;110226;1263;19907;-38
2023/09/18 07:40:02;;;;;;;;;21.50;21.00;;;;;24.81;51.92;100764.00;110152;1263;22094;-37
2023/09/18 07:42:28;;;;;;;;;24.00;22.00;;;;;24.80;52.07;100763.09;110228;1263;20183;-36
2023/09/18 07:44:54;;;;;;;;;22.50;21.50;;;;;24.80;52.27;100759.96;110175;1263;18549;-37
2023/09/18 07:47:20;;;;;;;;;24.00;22.00;;;;;24.81;52.50;100758.36;110205;1250;21705;-37
2023/09/18 07:49:46;;;;;;;;;18.00;18.00;;;;;24.82;52.54;100756.42;110218;1250;19810;-38
2023/09/18 07:52:13;;;;;;;;;19.00;18.50;;;;;24.91;52.44;100753.92;110202;1247;20154;-38
2023/09/18 07:54:39;;;;;;;;;17.50;17.50;;;;;24.94;52.41;100752.69;110192;1248;22664;-38
2023/09/18 07:57:09;;;;;;;;;17.00;15.00;;;;;25.00;52.25;100750.52;110217;1264;18392;-38
2023/09/18 07:59:35;;;;;;;;;17.00;17.00;;;;;25.04;52.30;100754.52;110243;1250;21685;-38
2023/09/18 08:02:01;;;;;;;;;17.00;14.50;;;;;25.06;52.15;100752.14;110209;1250;20644;-38
2023/09/18 08:04:27;;;;;;;;;19.50;17.00;;;;;25.09;52.08;100749.66;110220;1250;19834;-38
2023/09/18 08:06:52;;;;;;;;;15.00;14.00;;;;;25.11;51.83;100748.60;110288;1263;18439;-37
2023/09/18 08:09:18;;;;;;;;;21.00;18.00;;;;;25.13;51.86;100749.11;110302;1250;20623;-37
2023/09/18 08:11:44;;;;;;;;;15.00;14.00;;;;;25.13;51.70;100746.15;110268;1250;19863;-36
2023/09/18 08:14:10;;;;;;;;;17.00;15.00;;;;;25.16;51.77;100743.30;110299;1263;18532;-36
2023/09/18 08:16:36;;;;;;;;;18.00;17.00;;;;;25.15;51.90;100741.34;110209;1250;20516;-38
2023/09/18 08:19:02;;;;;;;;;18.00;14.00;;;;;25.13;51.80;100740.50;110222;1250;20006;-37
2023/09/18 08:21:29;;;;;;;;;17.00;13.00;;;;;25.16;51.75;100742.03;110188;1256;19916;-38
2023/09/18 08:23:55;;;;;;;;;14.67;13.33;;;;;25.17;51.56;100741.03;110218;1250;20757;-37
2023/09/18 08:26:21;;;;;;;;;18.00;14.00;;;;;25.15;51.62;100734.78;110218;1264;22347;-36
2023/09/18 08:28:47;;;;;;;;;14.00;14.00;;;;;25.16;51.85;100731.90;110204;1250;20016;-37
2023/09/18 08:31:16;;;;;;;;;15.00;13.00;;;;;25.17;51.78;100734.18;110240;1250;20474;-37
2023/09/18 08:33:42;;;;;;;;;14.67;14.67;;;;;25.18;51.66;100735.21;110274;1256;22267;-37
2023/09/18 08:36:08;;;;;;;;;15.00;14.50;;;;;25.22;51.73;100731.47;110231;1247;19925;-37
2023/09/18 08:38:34;;;;;;;;;15.00;14.00;;;;;25.16;52.30;100731.90;110225;1250;20550;-38
2023/09/18 08:41:00;;;;;;;;;15.00;15.00;;;;;25.19;52.24;100724.23;110199;1250;19836;-37
2023/09/18 08:43:26;;;;;;;;;17.50;17.00;;;;;25.18;52.40;100716.96;110189;1250;23242;-37
2023/09/18 08:45:52;;;;;;;;;18.50;17.50;;;;;25.22;52.20;100710.82;110170;1250;20840;-38
2023/09/18 08:48:18;;;;;;;;;19.00;17.00;;;;;25.22;52.20;100708.02;110211;1263;18560;-38
2023/09/18 08:50:44;;;;;;;;;19.00;18.00;;;;;25.16;52.23;100704.42;110217;1250;19841;-37
2023/09/18 08:53:10;;;;;;;;;17.00;15.00;;;;;25.21;52.21;100706.65;110226;1263;19201;-36
2023/09/18 08:55:36;;;;;;;;;17.00;15.00;;;;;25.16;52.00;100694.40;110217;1263;18594;-37
2023/09/18 08:58:02;;;;;;;;;14.00;13.00;;;;;25.21;51.96;100693.11;110220;1250;20039;-38
2023/09/18 09:00:28;;;;;;;;;16.00;14.50;;;;;25.28;51.79;100690.19;110228;1250;20442;-37
2023/09/18 09:02:54;;;;;;;;;14.00;14.00;;;;;25.25;51.66;100686.25;110284;1264;20233;-38
2023/09/18 09:05:20;;;;;;;;;15.00;15.00;;;;;25.27;51.57;100676.12;110268;1250;20175;-37
2023/09/18 09:07:46;;;;;;;;;15.00;15.00;;;;;25.29;51.54;100677.55;110220;1263;19001;-37
2023/09/18 09:10:12;;;;;;;;;17.00;15.00;;;;;25.32;51.51;100671.20;110204;1250;19932;-37
2023/09/18 09:12:39;;;;;;;;;17.00;15.00;;;;;25.32;51.48;100670.86;110155;1264;18475;-37
2023/09/18 09:15:05;;;;;;;;;21.00;18.00;;;;;25.33;51.24;100665.27;110185;1250;21070;-38
2023/09/18 09:17:31;;;;;;;;;19.00;18.00;;;;;25.34;50.90;100662.28;110197;1250;21265;-38
2023/09/18 09:19:57;;;;;;;;;18.00;18.00;;;;;25.33;50.89;100658.78;110192;1250;22924;-38
2023/09/18 09:22:23;;;;;;;;;16.00;15.00;;;;;25.32;50.96;100655.35;110188;1264;22804;-37
2023/09/18 09:24:49;;;;;;;;;16.50;15.00;;;;;25.29;50.75;100651.89;110242;1264;18601;-38
2023/09/18 09:27:15;;;;;;;;;19.00;17.00;;;;;25.27;50.77;100652.96;110213;1264;20950;-38
2023/09/18 09:29:40;;;;;;;;;16.50;16.50;;;;;25.28;51.01;100647.52;110226;1247;20529;-39
2023/09/18 09:32:06;;;;;;;;;19.00;18.00;;;;;25.28;51.01;100642.59;110161;1264;22858;-36
2023/09/18 09:34:34;;;;;;;;;22.00;18.00;;;;;25.30;50.73;100639.71;110159;1250;20945;-36
2023/09/18 09:37:03;;;;;;;;;17.50;17.00;;;;;25.31;50.81;100640.18;110231;1264;19530;-35
2023/09/18 09:39:30;;;;;;;;;18.00;17.00;;;;;25.29;50.72;100635.12;110175;1257;19946;-36
2023/09/18 09:41:56;;;;;;;;;21.33;19.00;;;;;25.32;50.60;100633.68;110203;1248;19527;-37
2023/09/18 09:44:22;;;;;;;;;18.00;18.00;;;;;25.37;50.55;100631.13;110431;1262;19145;-37
2023/09/18 09:46:48;;;;;;;;;20.00;18.00;;;;;25.41;50.54;100622.11;110329;1255;19989;-37
2023/09/18 09:49:15;;;;;;;;;18.00;18.00;;;;;25.35;50.61;100625.61;110385;1262;18934;-37
2023/09/18 09:51:41;;;;;;;;;20.50;17.50;;;;;25.35;50.57;100621.02;110430;1262;19397;-37
2023/09/18 09:54:08;;;;;;;;;18.00;17.00;;;;;25.38;50.48;100612.84;110436;1262;22314;-36
2023/09/18 09:56:34;;;;;;;;;18.00;17.33;;;;;25.43;50.37;100605.98;110410;1248;22099;-36
2023/09/18 09:59:00;;;;;;;;;21.00;21.00;;;;;25.42;50.19;100601.06;110412;1248;22314;-37
2023/09/18 10:01:27;;;;;;;;;19.00;18.00;;;;;25.45;50.01;100588.18;110360;1248;22872;-37
2023/09/18 10:03:53;;;;;;;;;18.00;17.67;;;;;25.44;50.05;100583.43;110341;1262;21998;-37
2023/09/18 10:06:19;;;;;;;;;18.00;17.00;;;;;25.45;50.21;100584.56;110305;1247;21265;-37
2023/09/18 10:08:45;;;;;;;;;18.50;18.00;;;;;25.44;50.34;100577.56;110290;1250;19803;-37
2023/09/18 10:11:16;;;;;;;;;23.00;20.50;;;;;25.50;49.95;100579.79;110228;1250;19913;-37
2023/09/18 10:13:42;;;;;;;;;22.00;21.00;;;;;25.45;49.87;100583.41;110175;1247;22203;-36
2023/09/18 10:16:10;;;;;;;;;21.00;19.00;;;;;25.44;50.04;100577.73;110270;1248;20304;-38
2023/09/18 10:18:36;;;;;;;;;23.50;22.50;;;;;25.45;49.90;100579.89;110215;1248;22573;-38
2023/09/18 10:21:02;;;;;;;;;24.00;23.00;;;;;25.44;49.67;100576.69;110240;1264;20399;-38
2023/09/18 10:23:28;;;;;;;;;24.00;23.00;;;;;25.47;49.52;100572.23;110218;1263;18601;-37
2023/09/18 10:25:55;;;;;;;;;26.50;25.00;;;;;25.47;49.74;100566.91;110220;1263;18525;-38
2023/09/18 10:28:21;;;;;;;;;27.00;26.00;;;;;25.45;50.03;100561.30;110163;1250;21047;-37
2023/09/18 10:30:47;;;;;;;;;27.00;24.00;;;;;25.50;50.06;100563.62;110199;1263;22194;-37
2023/09/18 10:33:13;;;;;;;;;31.00;26.00;;;;;25.56;50.09;100566.73;110207;1263;22831;-38
2023/09/18 10:35:39;;;;;;;;;28.00;26.00;;;;;25.59;49.87;100560.23;110212;1263;19163;-37
2023/09/18 10:38:05;;;;;;;;;27.00;24.00;;;;;25.55;49.69;100561.92;110210;1263;18371;-37
2023/09/18 10:40:31;;;;;;;;;27.00;26.00;;;;;25.53;49.56;100560.04;110203;1250;19897;-38
2023/09/18 10:42:57;;;;;;;;;28.00;26.50;;;;;25.47;49.52;100556.16;110180;1250;20513;-38
2023/09/18 10:45:23;;;;;;;;;24.00;23.00;;;;;25.50;49.33;100554.77;110215;1250;19815;-37
2023/09/18 10:47:49;;;;;;;;;25.00;24.00;;;;;25.52;49.00;100555.51;110209;1257;19732;-37
2023/09/18 10:50:15;;;;;;;;;26.00;23.00;;;;;25.46;48.96;100547.45;110196;1247;21473;-37
2023/09/18 10:52:41;;;;;;;;;26.00;23.00;;;;;25.50;48.69;100543.52;110200;1257;19644;-37
2023/09/18 10:55:07;;;;;;;;;24.00;23.00;;;;;25.48;48.69;100540.95;110223;1250;20066;-37
2023/09/18 10:57:34;;;;;;;;;31.00;26.00;;;;;25.46;48.78;100532.15;110235;1264;19807;-37